createdAt,value
2023-05-02T00:00:29.955Z,105.12
2023-05-02T00:01:29.890Z,106.95
2023-05-02T00:02:29.995Z,107.47
2023-05-02T00:03:29.950Z,111.41
2023-05-02T00:04:29.983Z,107.77
2023-05-02T00:05:29.885Z,107.94
2023-05-02T00:06:29.930Z,109.45
2023-05-02T00:07:29.846Z,112.90
2023-05-02T00:08:29.841Z,106.18
2023-05-02T00:09:29.838Z,111.43
2023-05-02T00:10:29.832Z,111.96
2023-05-02T00:11:29.843Z,105.45
2023-05-02T00:12:29.822Z,107.27
2023-05-02T00:13:29.816Z,108.70
2023-05-02T00:14:29.798Z,112.84
2023-05-02T00:15:29.791Z,111.61
2023-05-02T00:16:29.896Z,113.76
2023-05-02T00:17:29.822Z,110.39
2023-05-02T00:18:29.803Z,105.17
2023-05-02T00:19:29.773Z,109.52
2023-05-02T00:20:29.767Z,108.63
2023-05-02T00:21:29.772Z,105.02
2023-05-02T00:22:29.789Z,104.18
2023-05-02T00:23:29.755Z,109.97
2023-05-02T00:24:29.745Z,107.54
2023-05-02T00:25:29.752Z,110.37
2023-05-02T00:26:29.729Z,110.90
2023-05-02T00:27:29.714Z,101.67
2023-05-02T00:28:29.718Z,105.92
2023-05-02T00:29:29.715Z,105.53
2023-05-02T00:30:29.710Z,110.28
2023-05-02T00:31:29.739Z,110.17
2023-05-02T00:32:29.731Z,114.22
2023-05-02T00:33:29.695Z,113.54
2023-05-02T00:34:29.677Z,113.59
2023-05-02T00:35:29.668Z,110.45
2023-05-02T00:36:29.668Z,110.87
2023-05-02T00:37:29.667Z,111.61
2023-05-02T00:38:29.657Z,111.74
2023-05-02T00:39:29.646Z,110.30
2023-05-02T00:40:29.626Z,109.84
2023-05-02T00:41:29.653Z,110.84
2023-05-02T00:42:29.646Z,106.61
2023-05-02T00:43:29.629Z,111.86
2023-05-02T00:44:29.649Z,110.03
2023-05-02T00:45:29.670Z,111.10
2023-05-02T00:46:29.732Z,107.52
2023-05-02T00:47:29.793Z,110.91
2023-05-02T00:48:29.731Z,109.80
2023-05-02T00:49:29.762Z,107.83
2023-05-02T00:50:29.793Z,104.22
2023-05-02T00:51:29.805Z,109.19
2023-05-02T00:52:29.829Z,114.83
2023-05-02T00:53:29.856Z,111.33
2023-05-02T00:54:29.875Z,109.97
2023-05-02T00:55:29.883Z,115.98
2023-05-02T00:56:29.885Z,118.66
2023-05-02T00:57:29.920Z,115.64
2023-05-02T00:58:29.993Z,120.50
2023-05-02T00:59:29.916Z,114.35
2023-05-02T01:00:29.933Z,114.27
2023-05-02T01:01:30.033Z,111.91
2023-05-02T01:02:30.049Z,111.90
2023-05-02T01:03:30.104Z,112.56
2023-05-02T01:04:30.011Z,120.42
2023-05-02T01:05:30.036Z,117.16
2023-05-02T01:06:30.133Z,117.18
2023-05-02T01:07:30.071Z,114.97
2023-05-02T01:08:30.101Z,112.10
2023-05-02T01:09:30.108Z,120.42
2023-05-02T01:10:30.134Z,109.33
2023-05-02T01:11:30.165Z,112.54
2023-05-02T01:12:30.201Z,118.16
2023-05-02T01:13:30.192Z,111.70
2023-05-02T01:14:30.230Z,111.30
2023-05-02T01:15:30.234Z,113.19
2023-05-02T01:16:30.249Z,116.46
2023-05-02T01:17:30.288Z,117.02
2023-05-02T01:18:30.306Z,117.64
2023-05-02T01:19:30.285Z,116.87
2023-05-02T01:20:30.300Z,111.88
2023-05-02T01:21:30.300Z,108.47
2023-05-02T01:22:30.335Z,115.38
2023-05-02T01:23:30.356Z,120.45
2023-05-02T01:24:30.362Z,115.18
2023-05-02T01:25:30.365Z,113.19
2023-05-02T01:26:30.406Z,119.24
2023-05-02T01:27:30.398Z,114.67
2023-05-02T01:28:30.436Z,111.04
2023-05-02T01:29:30.453Z,115.28
2023-05-02T01:30:30.462Z,116.61
2023-05-02T01:31:30.520Z,117.52
2023-05-02T01:32:30.581Z,120.52
2023-05-02T01:33:30.555Z,118.33
2023-05-02T01:34:30.579Z,119.39
2023-05-02T01:35:30.575Z,115.57
2023-05-02T01:36:30.588Z,117.18
2023-05-02T01:37:30.605Z,113.79
2023-05-02T01:38:30.649Z,121.30
2023-05-02T01:39:30.668Z,114.87
2023-05-02T01:40:30.678Z,119.08
2023-05-02T01:41:30.709Z,113.69
2023-05-02T01:42:30.732Z,110.39
2023-05-02T01:43:30.753Z,108.19
2023-05-02T01:44:30.773Z,114.57
2023-05-02T01:45:30.777Z,112.10
2023-05-02T01:46:30.874Z,107.20
2023-05-02T01:47:30.845Z,114.54
2023-05-02T01:48:30.979Z,114.72
2023-05-02T01:49:30.856Z,117.04
2023-05-02T01:50:30.878Z,107.31
2023-05-02T01:51:30.905Z,113.62
2023-05-02T01:52:30.939Z,117.63
2023-05-02T01:53:30.980Z,117.97
2023-05-02T01:54:30.994Z,112.78
2023-05-02T01:55:31.029Z,113.36
2023-05-02T01:56:31.053Z,118.62
2023-05-02T01:57:31.060Z,123.54
2023-05-02T01:58:31.109Z,123.92
2023-05-02T01:59:31.154Z,117.28
2023-05-02T02:00:31.145Z,117.42
2023-05-02T02:01:31.302Z,121.73
2023-05-02T02:02:31.225Z,118.68
2023-05-02T02:03:31.250Z,123.72
2023-05-02T02:04:31.276Z,121.57
2023-05-02T02:05:31.282Z,120.38
2023-05-02T02:06:31.352Z,119.31
2023-05-02T02:07:31.333Z,117.08
2023-05-02T02:08:31.347Z,123.63
2023-05-02T02:09:31.399Z,117.55
2023-05-02T02:10:31.413Z,121.22
2023-05-02T02:11:31.423Z,119.93
2023-05-02T02:12:31.471Z,122.43
2023-05-02T02:13:31.492Z,124.56
2023-05-02T02:14:31.519Z,116.02
2023-05-02T02:15:31.556Z,123.45
2023-05-02T02:16:31.671Z,122.49
2023-05-02T02:17:31.630Z,118.19
2023-05-02T02:18:31.618Z,119.83
2023-05-02T02:19:31.628Z,119.74
2023-05-02T02:20:31.643Z,115.72
2023-05-02T02:21:31.669Z,117.73
2023-05-02T02:22:31.717Z,124.66
2023-05-02T02:23:31.743Z,115.68
2023-05-02T02:24:31.763Z,117.22
2023-05-02T02:25:31.795Z,117.37
2023-05-02T02:26:31.794Z,117.48
2023-05-02T02:27:31.825Z,119.93
2023-05-02T02:28:31.846Z,118.61
2023-05-02T02:29:31.905Z,121.70
2023-05-02T02:30:32.014Z,121.54
2023-05-02T02:31:32.060Z,118.20
2023-05-02T02:32:31.968Z,123.58
2023-05-02T02:33:31.981Z,118.22
2023-05-02T02:34:32.017Z,116.17
2023-05-02T02:35:32.042Z,112.96
2023-05-02T02:36:32.035Z,116.07
2023-05-02T02:37:32.071Z,116.10
2023-05-02T02:38:32.096Z,124.26
2023-05-02T02:39:32.140Z,122.83
2023-05-02T02:40:32.150Z,120.17
2023-05-02T02:41:32.206Z,113.70
2023-05-02T02:42:32.192Z,119.47
2023-05-02T02:43:32.233Z,116.37
2023-05-02T02:44:32.269Z,110.69
2023-05-02T02:45:32.280Z,111.58
2023-05-02T02:46:32.365Z,116.59
2023-05-02T02:47:32.438Z,114.59
2023-05-02T02:48:32.386Z,116.52
2023-05-02T02:49:32.415Z,113.89
2023-05-02T02:50:32.450Z,118.61
2023-05-02T02:51:32.463Z,109.08
2023-05-02T02:52:32.497Z,103.67
2023-05-02T02:53:32.529Z,106.92
2023-05-02T02:54:32.549Z,107.99
2023-05-02T02:55:32.564Z,110.55
2023-05-02T02:56:32.606Z,110.45
2023-05-02T02:57:32.620Z,107.82
2023-05-02T02:58:32.663Z,110.28
2023-05-02T02:59:32.702Z,110.71
2023-05-02T03:00:32.695Z,106.14
2023-05-02T03:01:32.806Z,114.38
2023-05-02T03:02:32.859Z,110.39
2023-05-02T03:03:32.732Z,111.83
2023-05-02T03:04:32.718Z,113.68
2023-05-02T03:05:32.736Z,115.53
2023-05-02T03:06:32.762Z,115.21
2023-05-02T03:07:32.730Z,111.05
2023-05-02T03:08:32.743Z,107.30
2023-05-02T03:09:32.773Z,101.38
2023-05-02T03:10:32.776Z,103.09
2023-05-02T03:11:32.806Z,111.01
2023-05-02T03:12:32.811Z,106.67
2023-05-02T03:13:32.831Z,105.97
2023-05-02T03:14:32.844Z,103.38
2023-05-02T03:15:32.840Z,100.92
2023-05-02T03:16:32.890Z,107.87
2023-05-02T03:17:32.951Z,109.56
2023-05-02T03:18:32.911Z,115.84
2023-05-02T03:19:32.957Z,108.63
2023-05-02T03:20:32.971Z,103.94
2023-05-02T03:21:32.980Z,104.69
2023-05-02T03:22:33.000Z,106.10
2023-05-02T03:23:33.034Z,105.54
2023-05-02T03:24:33.067Z,103.25
2023-05-02T03:25:33.083Z,104.47
2023-05-02T03:26:33.107Z,98.70
2023-05-02T03:27:33.085Z,98.65
2023-05-02T03:28:33.136Z,109.52
2023-05-02T03:29:33.153Z,104.31
2023-05-02T03:30:33.176Z,105.52
2023-05-02T03:31:33.223Z,104.00
2023-05-02T03:32:33.210Z,104.47
2023-05-02T03:33:33.213Z,101.85
2023-05-02T03:34:33.250Z,108.08
2023-05-02T03:35:33.243Z,105.19
2023-05-02T03:36:33.275Z,111.93
2023-05-02T03:37:33.273Z,107.29
2023-05-02T03:38:33.295Z,105.25
2023-05-02T03:39:33.306Z,102.37
2023-05-02T03:40:33.311Z,102.93
2023-05-02T03:41:33.350Z,109.53
2023-05-02T03:42:33.409Z,112.55
2023-05-02T03:43:33.403Z,113.01
2023-05-02T03:44:33.439Z,109.15
2023-05-02T03:45:33.455Z,107.19
2023-05-02T03:46:33.532Z,107.80
2023-05-02T03:47:33.540Z,102.01
2023-05-02T03:48:33.520Z,99.36
2023-05-02T03:49:33.566Z,107.95
2023-05-02T03:50:33.588Z,105.65
2023-05-02T03:51:33.614Z,105.38
2023-05-02T03:52:33.622Z,105.46
2023-05-02T03:53:33.635Z,101.58
2023-05-02T03:54:33.647Z,112.10
2023-05-02T03:55:33.668Z,104.60
2023-05-02T03:56:33.708Z,109.75
2023-05-02T03:57:33.706Z,101.30
2023-05-02T03:58:33.762Z,98.97
2023-05-02T03:59:33.785Z,101.33
2023-05-02T04:00:33.801Z,104.54
2023-05-02T04:01:33.933Z,106.77
2023-05-02T04:02:33.994Z,99.27
2023-05-02T04:03:33.976Z,112.08
2023-05-02T04:04:33.880Z,110.26
2023-05-02T04:05:33.861Z,108.53
2023-05-02T04:06:33.914Z,106.64
2023-05-02T04:07:33.893Z,112.03
2023-05-02T04:08:33.915Z,105.40
2023-05-02T04:09:33.950Z,106.33
2023-05-02T04:10:33.987Z,107.05
2023-05-02T04:11:34.026Z,110.40
2023-05-02T04:12:34.032Z,110.32
2023-05-02T04:13:34.068Z,105.75
2023-05-02T04:14:34.078Z,109.66
2023-05-02T04:15:34.164Z,108.75
2023-05-02T04:16:34.159Z,111.93
2023-05-02T04:17:34.245Z,115.66
2023-05-02T04:18:34.209Z,107.51
2023-05-02T04:19:34.232Z,104.39
2023-05-02T04:20:34.250Z,106.90
2023-05-02T04:21:34.267Z,108.78
2023-05-02T04:22:34.324Z,103.13
2023-05-02T04:23:34.370Z,107.58
2023-05-02T04:24:34.410Z,109.70
2023-05-02T04:25:34.391Z,107.05
2023-05-02T04:26:34.422Z,110.99
2023-05-02T04:27:34.428Z,110.78
2023-05-02T04:28:34.451Z,108.19
2023-05-02T04:29:34.454Z,104.84
2023-05-02T04:30:34.504Z,110.75
2023-05-02T04:31:34.686Z,114.24
2023-05-02T04:32:34.505Z,107.48
2023-05-02T04:33:34.519Z,112.83
2023-05-02T04:34:34.551Z,112.14
2023-05-02T04:35:34.567Z,110.61
2023-05-02T04:36:34.581Z,107.25
2023-05-02T04:37:34.625Z,103.01
2023-05-02T04:38:34.626Z,102.30
2023-05-02T04:39:34.641Z,107.41
2023-05-02T04:40:34.676Z,106.61
2023-05-02T04:41:34.699Z,104.88
2023-05-02T04:42:34.721Z,106.06
2023-05-02T04:43:34.721Z,108.41
2023-05-02T04:44:34.739Z,109.53
2023-05-02T04:45:34.783Z,113.93
2023-05-02T04:46:34.863Z,107.88
2023-05-02T04:47:34.926Z,104.35
2023-05-02T04:48:34.860Z,109.16
2023-05-02T04:49:34.899Z,112.85
2023-05-02T04:50:34.930Z,102.67
2023-05-02T04:51:34.958Z,105.27
2023-05-02T04:52:35.011Z,101.80
2023-05-02T04:53:35.034Z,107.66
2023-05-02T04:54:35.084Z,115.56
2023-05-02T04:55:35.081Z,109.93
2023-05-02T04:56:35.110Z,113.21
2023-05-02T04:57:35.145Z,111.43
2023-05-02T04:58:35.160Z,109.56
2023-05-02T04:59:35.184Z,113.29
2023-05-02T05:00:35.202Z,111.08
2023-05-02T05:01:35.281Z,109.63
2023-05-02T05:02:35.289Z,112.10
2023-05-02T05:03:35.278Z,109.66
2023-05-02T05:04:35.280Z,112.33
2023-05-02T05:05:35.315Z,106.72
2023-05-02T05:06:35.351Z,113.52
2023-05-02T05:07:35.320Z,105.96
2023-05-02T05:08:35.325Z,107.89
2023-05-02T05:09:35.333Z,112.10
2023-05-02T05:10:35.351Z,111.15
2023-05-02T05:11:35.372Z,109.54
2023-05-02T05:12:35.375Z,109.28
2023-05-02T05:13:35.372Z,110.77
2023-05-02T05:14:35.393Z,107.03
2023-05-02T05:15:35.393Z,102.56
2023-05-02T05:16:35.507Z,98.11
2023-05-02T05:17:35.487Z,100.37
2023-05-02T05:18:35.479Z,99.83
2023-05-02T05:19:35.480Z,95.63
2023-05-02T05:20:35.504Z,101.88
2023-05-02T05:21:35.484Z,102.53
2023-05-02T05:22:35.476Z,99.07
2023-05-02T05:23:35.491Z,111.86
2023-05-02T05:24:35.524Z,109.14
2023-05-02T05:25:35.528Z,112.69
2023-05-02T05:26:35.567Z,103.38
2023-05-02T05:27:35.585Z,91.67
2023-05-02T05:28:35.606Z,98.82
2023-05-02T05:29:35.668Z,121.05
2023-05-02T05:30:35.686Z,129.48
2023-05-02T05:31:35.727Z,146.51
2023-05-02T05:32:35.762Z,196.73
2023-05-02T05:33:35.790Z,216.67
2023-05-02T05:34:35.746Z,225.27
2023-05-02T05:35:35.813Z,250.00
2023-05-02T05:36:35.866Z,259.04
2023-05-02T05:37:35.918Z,310.06
2023-05-02T05:38:35.989Z,283.18
2023-05-02T05:39:35.975Z,250.00
2023-05-02T05:40:35.992Z,248.42
2023-05-02T05:41:36.013Z,248.60
2023-05-02T05:42:36.035Z,240.98
2023-05-02T05:43:38.014Z,247.03
2023-05-02T05:44:36.087Z,249.67
2023-05-02T05:45:36.110Z,250.00
2023-05-02T05:46:36.184Z,249.13
2023-05-02T05:47:36.296Z,248.90
2023-05-02T05:48:36.150Z,250.00
2023-05-02T05:49:38.433Z,250.23
2023-05-02T05:50:36.137Z,248.19
2023-05-02T05:51:36.140Z,246.54
2023-05-02T05:52:36.145Z,248.12
2023-05-02T05:53:36.127Z,241.97
2023-05-02T05:54:36.130Z,242.53
2023-05-02T05:55:37.504Z,242.30
2023-05-02T05:56:36.127Z,239.70
2023-05-02T05:57:36.098Z,230.75
2023-05-02T05:58:36.091Z,228.30
2023-05-02T05:59:36.213Z,231.49
2023-05-02T06:00:36.085Z,233.51
2023-05-02T06:01:36.060Z,230.45
2023-05-02T06:02:36.204Z,248.93
2023-05-02T06:03:36.294Z,250.97
2023-05-02T06:04:36.088Z,251.60
2023-05-02T06:05:36.129Z,250.71
2023-05-02T06:06:36.075Z,248.51
2023-05-02T06:07:36.055Z,240.80
2023-05-02T06:08:36.034Z,233.65
2023-05-02T06:09:36.020Z,225.66
2023-05-02T06:10:36.033Z,219.76
2023-05-02T06:11:36.012Z,214.22
2023-05-02T06:12:36.059Z,201.31
2023-05-02T06:13:36.000Z,201.71
2023-05-02T06:14:35.981Z,180.79
2023-05-02T06:15:35.981Z,174.16
2023-05-02T06:16:36.012Z,163.27
2023-05-02T06:17:36.098Z,152.75
2023-05-02T06:18:35.958Z,146.99
2023-05-02T06:19:35.957Z,135.70
2023-05-02T06:20:35.942Z,143.09
2023-05-02T06:21:36.016Z,140.73
2023-05-02T06:22:35.935Z,133.67
2023-05-02T06:23:36.785Z,128.26
2023-05-02T06:24:35.916Z,127.05
2023-05-02T06:25:35.970Z,127.32
2023-05-02T06:26:35.983Z,119.79
2023-05-02T06:27:35.979Z,117.53
2023-05-02T06:28:35.982Z,113.71
2023-05-02T06:29:35.978Z,109.69
2023-05-02T06:30:35.997Z,103.10
2023-05-02T06:31:36.034Z,114.24
2023-05-02T06:32:36.080Z,117.36
2023-05-02T06:33:36.066Z,118.03
2023-05-02T06:34:36.579Z,128.59
2023-05-02T06:35:36.102Z,136.03
2023-05-02T06:36:36.113Z,103.80
2023-05-02T06:37:36.165Z,88.40
2023-05-02T06:38:36.226Z,96.57
2023-05-02T06:39:36.556Z,96.69
2023-05-02T06:40:36.329Z,106.08
2023-05-02T06:41:36.378Z,113.71
2023-05-02T06:42:36.439Z,119.04
2023-05-02T06:43:36.466Z,119.16
2023-05-02T06:44:36.552Z,117.52
2023-05-02T06:45:36.538Z,115.88
2023-05-02T06:46:36.636Z,115.34
2023-05-02T06:47:37.120Z,109.74
2023-05-02T06:48:36.657Z,108.49
2023-05-02T06:49:36.675Z,111.56
2023-05-02T06:50:36.708Z,112.33
2023-05-02T06:51:36.804Z,114.28
2023-05-02T06:52:36.834Z,116.14
2023-05-02T06:53:36.894Z,106.09
2023-05-02T06:54:36.903Z,103.06
2023-05-02T06:55:36.879Z,108.70
2023-05-02T06:56:36.888Z,119.79
2023-05-02T06:57:36.904Z,124.32
2023-05-02T06:58:36.948Z,126.86
2023-05-02T06:59:37.057Z,127.27
2023-05-02T07:00:37.027Z,130.43
2023-05-02T07:01:37.208Z,128.75
2023-05-02T07:02:37.683Z,137.26
2023-05-02T07:03:37.201Z,140.71
2023-05-02T07:04:37.260Z,147.51
2023-05-02T07:05:37.288Z,145.94
2023-05-02T07:06:37.394Z,150.00
2023-05-02T07:07:37.413Z,151.86
2023-05-02T07:08:37.403Z,154.59
2023-05-02T07:09:37.459Z,151.09
2023-05-02T07:10:37.475Z,155.79
2023-05-02T07:11:37.474Z,155.44
2023-05-02T07:12:37.582Z,152.89
2023-05-02T07:13:37.515Z,149.63
2023-05-02T07:14:37.589Z,149.26
2023-05-02T07:15:37.559Z,166.07
2023-05-02T07:16:37.612Z,202.82
2023-05-02T07:17:37.650Z,199.53
2023-05-02T07:18:37.653Z,200.21
2023-05-02T07:19:37.571Z,197.71
2023-05-02T07:20:37.776Z,193.86
2023-05-02T07:21:37.619Z,192.98
2023-05-02T07:22:38.073Z,193.60
2023-05-02T07:23:37.632Z,230.53
2023-05-02T07:24:37.614Z,236.53
2023-05-02T07:25:37.656Z,241.34
2023-05-02T07:26:37.627Z,215.44
2023-05-02T07:27:38.067Z,211.61
2023-05-02T07:28:37.670Z,201.87
2023-05-02T07:29:37.714Z,206.93
2023-05-02T07:30:37.748Z,206.95
2023-05-02T07:31:37.834Z,205.77
2023-05-02T07:32:37.906Z,207.08
2023-05-02T07:33:37.874Z,207.44
2023-05-02T07:34:37.905Z,203.45
2023-05-02T07:35:37.937Z,202.85
2023-05-02T07:36:37.995Z,203.29
2023-05-02T07:37:38.034Z,204.10
2023-05-02T07:38:37.992Z,204.83
2023-05-02T07:39:38.076Z,203.59
2023-05-02T07:40:38.007Z,206.12
2023-05-02T07:41:37.961Z,208.41
2023-05-02T07:42:37.964Z,206.21
2023-05-02T07:43:38.021Z,208.93
2023-05-02T07:44:38.057Z,208.01
2023-05-02T07:45:38.103Z,210.28
2023-05-02T07:46:38.272Z,209.78
2023-05-02T07:47:38.665Z,207.49
2023-05-02T07:48:38.220Z,211.77
2023-05-02T07:49:38.278Z,209.72
2023-05-02T07:50:38.325Z,209.46
2023-05-02T07:51:38.435Z,207.60
2023-05-02T07:52:38.446Z,208.02
2023-05-02T07:53:38.431Z,207.55
2023-05-02T07:54:38.414Z,204.71
2023-05-02T07:55:38.415Z,203.23
2023-05-02T07:56:38.535Z,199.33
2023-05-02T07:57:38.427Z,195.17
2023-05-02T07:58:38.428Z,189.59
2023-05-02T07:59:38.430Z,188.35
2023-05-02T08:00:38.456Z,186.03
2023-05-02T08:01:38.495Z,181.88
2023-05-02T08:02:38.528Z,183.38
2023-05-02T08:03:38.563Z,165.17
2023-05-02T08:04:38.509Z,164.30
2023-05-02T08:05:38.466Z,158.21
2023-05-02T08:06:38.459Z,162.12
2023-05-02T08:07:38.464Z,165.27
2023-05-02T08:08:38.439Z,167.28
2023-05-02T08:09:38.444Z,163.68
2023-05-02T08:10:38.604Z,160.97
2023-05-02T08:11:38.457Z,162.06
2023-05-02T08:12:38.484Z,159.30
2023-05-02T08:13:38.478Z,158.97
2023-05-02T08:14:38.570Z,163.76
2023-05-02T08:15:38.668Z,161.70
2023-05-02T08:16:38.820Z,156.28
2023-05-02T08:17:38.732Z,158.92
2023-05-02T08:18:38.659Z,123.20
2023-05-02T08:19:38.719Z,79.90
2023-05-02T08:20:39.105Z,41.52
2023-05-02T08:21:38.767Z,42.08
2023-05-02T08:22:39.137Z,44.81
2023-05-02T08:23:38.809Z,52.91
2023-05-02T08:24:38.871Z,44.88
2023-05-02T08:25:38.880Z,34.02
2023-05-02T08:26:38.937Z,35.80
2023-05-02T08:27:39.002Z,28.23
2023-05-02T08:28:39.045Z,38.01
2023-05-02T08:29:39.117Z,70.19
2023-05-02T08:30:39.166Z,89.24
2023-05-02T08:31:39.265Z,105.19
2023-05-02T08:32:39.330Z,119.39
2023-05-02T08:33:39.304Z,141.20
2023-05-02T08:34:39.344Z,140.56
2023-05-02T08:35:39.376Z,141.82
2023-05-02T08:36:39.404Z,135.22
2023-05-02T08:37:39.633Z,129.56
2023-05-02T08:38:39.468Z,88.76
2023-05-02T08:39:39.452Z,53.21
2023-05-02T08:40:42.167Z,44.28
2023-05-02T08:41:39.463Z,32.90
2023-05-02T08:42:39.618Z,25.00
2023-05-02T08:43:39.493Z,24.08
2023-05-02T08:44:39.492Z,19.88
2023-05-02T08:45:39.480Z,24.56
2023-05-02T08:46:39.526Z,24.12
2023-05-02T08:47:39.674Z,25.61
2023-05-02T08:48:39.507Z,24.99
2023-05-02T08:49:39.461Z,25.70
2023-05-02T08:50:39.626Z,25.02
2023-05-02T08:51:40.420Z,24.09
2023-05-02T08:52:39.380Z,20.09
2023-05-02T08:53:39.372Z,19.56
2023-05-02T08:54:39.413Z,15.47
2023-05-02T08:55:39.387Z,18.19
2023-05-02T08:56:39.460Z,18.10
2023-05-02T08:57:39.360Z,26.78
2023-05-02T08:58:39.350Z,29.93
2023-05-02T08:59:39.386Z,35.15
2023-05-02T09:00:39.352Z,46.98
2023-05-02T09:01:39.373Z,50.60
2023-05-02T09:02:39.456Z,53.47
2023-05-02T09:03:39.300Z,54.39
2023-05-02T09:04:39.344Z,56.81
2023-05-02T09:05:39.315Z,60.50
2023-05-02T09:06:39.301Z,62.17
2023-05-02T09:07:39.275Z,66.65
2023-05-02T09:08:39.264Z,62.32
2023-05-02T09:09:39.253Z,54.36
2023-05-02T09:10:39.270Z,57.00
2023-05-02T09:11:39.229Z,60.19
2023-05-02T09:12:39.246Z,56.91
2023-05-02T09:13:39.229Z,56.35
2023-05-02T09:14:39.226Z,56.66
2023-05-02T09:15:39.225Z,76.20
2023-05-02T09:16:39.297Z,81.69
2023-05-02T09:17:39.221Z,84.29
2023-05-02T09:18:39.210Z,94.15
2023-05-02T09:19:39.191Z,108.67
2023-05-02T09:20:39.185Z,122.30
2023-05-02T09:21:39.184Z,128.66
2023-05-02T09:22:39.187Z,131.59
2023-05-02T09:23:39.639Z,131.74
2023-05-02T09:24:39.153Z,143.02
2023-05-02T09:25:39.146Z,148.99
2023-05-02T09:26:39.131Z,147.06
2023-05-02T09:27:39.135Z,142.38
2023-05-02T09:28:39.621Z,143.53
2023-05-02T09:29:39.305Z,154.35
2023-05-02T09:30:39.136Z,161.18
2023-05-02T09:32:39.123Z,169.79
2023-05-02T09:33:39.134Z,168.11
2023-05-02T09:34:39.086Z,131.48
2023-05-02T09:35:39.154Z,116.80
2023-05-02T09:36:39.057Z,113.77
2023-05-02T09:37:39.066Z,116.46
2023-05-02T09:38:39.064Z,104.54
2023-05-02T09:39:39.044Z,107.30
2023-05-02T09:40:39.043Z,96.34
2023-05-02T09:41:39.020Z,91.16
2023-05-02T09:42:39.007Z,85.25
2023-05-02T09:43:39.008Z,97.34
2023-05-02T09:44:39.011Z,88.85
2023-05-02T09:45:39.012Z,89.15
2023-05-02T09:46:39.065Z,88.77
2023-05-02T09:47:39.043Z,85.17
2023-05-02T09:48:39.014Z,76.54
2023-05-02T09:49:38.972Z,76.81
2023-05-02T09:50:38.953Z,68.93
2023-05-02T09:51:38.970Z,64.41
2023-05-02T09:52:38.957Z,85.93
2023-05-02T09:53:38.968Z,87.82
2023-05-02T09:54:38.972Z,86.38
2023-05-02T09:55:38.940Z,77.41
2023-05-02T09:56:38.926Z,73.93
2023-05-02T09:57:38.919Z,78.24
2023-05-02T09:58:38.943Z,91.42
2023-05-02T09:59:38.929Z,86.49
2023-05-02T10:00:38.906Z,81.64
2023-05-02T10:01:38.968Z,87.34
2023-05-02T10:02:38.928Z,81.10
2023-05-02T10:03:38.947Z,55.29
2023-05-02T10:04:38.931Z,58.52
2023-05-02T10:05:39.186Z,56.24
2023-05-02T10:06:38.918Z,68.13
2023-05-02T10:07:38.859Z,51.99
2023-05-02T10:08:39.149Z,30.75
2023-05-02T10:09:38.827Z,34.13
2023-05-02T10:10:39.153Z,43.36
2023-05-02T10:11:38.816Z,50.10
2023-05-02T10:12:38.846Z,42.83
2023-05-02T10:13:38.831Z,24.97
2023-05-02T10:14:38.801Z,31.66
2023-05-02T10:15:38.812Z,22.21
2023-05-02T10:16:38.796Z,23.52
2023-05-02T10:17:38.819Z,30.61
2023-05-02T10:18:38.777Z,26.78
2023-05-02T10:19:38.803Z,25.00
2023-05-02T10:20:38.772Z,44.98
2023-05-02T10:21:38.764Z,50.70
2023-05-02T10:22:38.776Z,44.89
2023-05-02T10:23:38.755Z,45.69
2023-05-02T10:24:38.721Z,54.64
2023-05-02T10:25:38.730Z,58.78
2023-05-02T10:26:38.727Z,78.76
2023-05-02T10:27:38.755Z,97.82
2023-05-02T10:28:39.182Z,116.28
2023-05-02T10:29:38.797Z,127.26
2023-05-02T10:30:39.155Z,129.57
2023-05-02T10:31:38.734Z,136.87
2023-05-02T10:32:38.726Z,141.95
2023-05-02T10:33:39.148Z,151.14
2023-05-02T10:34:38.677Z,156.14
2023-05-02T10:35:38.665Z,161.37
2023-05-02T10:36:38.654Z,166.73
2023-05-02T10:37:38.646Z,170.85
2023-05-02T10:38:38.644Z,173.05
2023-05-02T10:39:38.620Z,174.75
2023-05-02T10:40:38.622Z,180.51
2023-05-02T10:41:38.600Z,181.24
2023-05-02T10:42:38.606Z,183.84
2023-05-02T10:43:38.594Z,186.11
2023-05-02T10:44:38.662Z,187.22
2023-05-02T10:45:38.643Z,185.60
2023-05-02T10:46:38.666Z,181.69
2023-05-02T10:47:38.682Z,181.51
2023-05-02T10:48:38.670Z,206.85
2023-05-02T10:49:38.684Z,213.60
2023-05-02T10:50:38.711Z,187.45
2023-05-02T10:51:38.737Z,181.09
2023-05-02T10:52:38.819Z,177.07
2023-05-02T10:53:38.832Z,174.52
2023-05-02T10:54:38.862Z,177.43
2023-05-02T10:55:38.876Z,178.01
2023-05-02T10:56:38.906Z,161.25
2023-05-02T10:57:38.988Z,156.42
2023-05-02T10:58:38.985Z,167.36
2023-05-02T10:59:38.996Z,169.15
2023-05-02T11:00:39.052Z,169.74
2023-05-02T11:01:39.020Z,161.01
2023-05-02T11:02:39.101Z,165.95
2023-05-02T11:03:39.125Z,171.59
2023-05-02T11:04:39.110Z,175.15
2023-05-02T11:05:39.154Z,174.05
2023-05-02T11:06:39.184Z,175.51
2023-05-02T11:07:39.181Z,175.17
2023-05-02T11:08:39.226Z,176.01
2023-05-02T11:09:39.227Z,170.93
2023-05-02T11:10:39.255Z,160.65
2023-05-02T11:11:39.346Z,161.72
2023-05-02T11:12:39.344Z,152.75
2023-05-02T11:13:39.374Z,157.97
2023-05-02T11:14:39.393Z,143.50
2023-05-02T11:15:39.661Z,103.18
2023-05-02T11:16:39.556Z,85.98
2023-05-02T11:17:39.616Z,79.69
2023-05-02T11:18:39.606Z,87.73
2023-05-02T11:19:39.656Z,97.73
2023-05-02T11:20:39.703Z,101.99
2023-05-02T11:21:39.729Z,103.55
2023-05-02T11:22:39.738Z,108.62
2023-05-02T11:23:39.795Z,111.03
2023-05-02T11:24:39.833Z,124.50
2023-05-02T11:25:39.900Z,128.32
2023-05-02T11:26:39.912Z,111.73
2023-05-02T11:27:39.969Z,103.02
2023-05-02T11:28:40.014Z,100.99
2023-05-02T11:29:40.024Z,86.16
2023-05-02T11:30:40.050Z,103.46
2023-05-02T11:31:40.119Z,110.70
2023-05-02T11:32:40.106Z,110.25
2023-05-02T11:33:40.125Z,110.44
2023-05-02T11:34:40.129Z,122.66
2023-05-02T11:35:40.176Z,135.91
2023-05-02T11:36:40.204Z,132.00
2023-05-02T11:37:40.235Z,140.22
2023-05-02T11:38:40.280Z,148.64
2023-05-02T11:39:40.257Z,147.72
2023-05-02T11:40:40.282Z,156.35
2023-05-02T11:41:40.289Z,157.05
2023-05-02T11:42:40.301Z,159.28
2023-05-02T11:43:40.371Z,161.76
2023-05-02T11:44:40.389Z,161.73
2023-05-02T11:45:40.418Z,162.32
2023-05-02T11:46:40.700Z,160.18
2023-05-02T11:47:40.529Z,158.20
2023-05-02T11:48:40.575Z,162.87
2023-05-02T11:49:40.612Z,162.89
2023-05-02T11:50:43.990Z,166.97
2023-05-02T11:51:41.596Z,167.15
2023-05-02T11:52:40.586Z,167.55
2023-05-02T11:53:40.602Z,168.63
2023-05-02T11:54:40.587Z,170.63
2023-05-02T11:55:40.579Z,172.86
2023-05-02T11:56:40.553Z,173.88
2023-05-02T11:57:40.573Z,170.83
2023-05-02T11:58:40.542Z,172.16
2023-05-02T11:59:40.543Z,174.03
2023-05-02T12:00:40.529Z,172.98
2023-05-02T12:01:40.547Z,175.18
2023-05-02T12:02:40.629Z,172.08
2023-05-02T12:03:40.730Z,170.90
2023-05-02T12:04:40.668Z,171.58
2023-05-02T12:05:40.747Z,172.44
2023-05-02T12:06:40.816Z,171.23
2023-05-02T12:07:40.795Z,173.74
2023-05-02T12:08:41.180Z,171.43
2023-05-02T12:09:40.783Z,170.42
2023-05-02T12:10:40.782Z,169.53
2023-05-02T12:11:40.795Z,170.12
2023-05-02T12:12:40.805Z,172.36
2023-05-02T12:13:40.802Z,171.44
2023-05-02T12:14:40.803Z,170.58
2023-05-02T12:15:40.921Z,169.44
2023-05-02T12:16:40.948Z,170.56
2023-05-02T12:17:40.936Z,171.27
2023-05-02T12:18:40.979Z,170.07
2023-05-02T12:19:41.019Z,170.48
2023-05-02T12:20:41.090Z,168.65
2023-05-02T12:21:41.118Z,168.29
2023-05-02T12:22:41.141Z,168.99
2023-05-02T12:23:41.156Z,167.97
2023-05-02T12:24:41.181Z,167.22
2023-05-02T12:25:41.164Z,165.95
2023-05-02T12:26:41.167Z,166.26
2023-05-02T12:27:41.161Z,166.55
2023-05-02T12:28:41.175Z,165.85
2023-05-02T12:29:41.180Z,165.49
2023-05-02T12:30:41.185Z,163.28
2023-05-02T12:31:41.234Z,164.23
2023-05-02T12:32:41.219Z,164.03
2023-05-02T12:33:41.234Z,165.03